METAR Data
IDs: Format: Raw Decoded Include TAF

Data at: 2019 UTC 14 Dec 2018

KBWD 142015Z AUTO 33017G21KT 10SM OVC026 08/00 A3012 RMK AO1
KBWD 141955Z AUTO 32022G27KT 10SM OVC026 08/00 A3012 RMK AO1
KBWD 141935Z AUTO 33021G30KT 10SM OVC026 08/00 A3012 RMK AO1
KBWD 141915Z AUTO 32021G35KT 10SM OVC026 07/01 A3012 RMK AO1
KBWD 141855Z AUTO 33018G25KT 10SM OVC026 08/01 A3012 RMK AO1
KBWD 141835Z AUTO 33024G30KT 10SM OVC026 07/01 A3012 RMK AO1
KBWD 141815Z AUTO 32022G28KT 10SM OVC026 07/00 A3012 RMK AO1
KBWD 141755Z AUTO 33017G27KT 10SM OVC026 07/00 A3013 RMK AO1
KBWD 141735Z AUTO 33016G28KT 10SM OVC026 07/02 A3013 RMK AO1
KBWD 141715Z AUTO 33017G25KT 10SM OVC024 06/01 A3013 RMK AO1
KBWD 141655Z AUTO 33019G23KT 10SM OVC024 06/02 A3013 RMK AO1
KBWD 141635Z AUTO 33017G23KT 10SM OVC024 05/01 A3013 RMK AO1
KBWD 141615Z AUTO 33019G29KT 10SM OVC024 05/00 A3012 RMK AO1
KBWD 141555Z AUTO 33019G30KT 10SM OVC024 05/00 A3011 RMK AO1
KBWD 141535Z AUTO 32021G27KT 10SM OVC024 04/00 A3010 RMK AO1
KBWD 141515Z AUTO 33020G26KT 10SM OVC024 04/01 A3010 RMK AO1
KBWD 141455Z AUTO 33017G21KT 10SM OVC024 04/01 A3010 RMK AO1
KBWD 141435Z AUTO 33018G23KT 10SM OVC022 04/01 A3009 RMK AO1
KBWD 141415Z AUTO 33016G22KT 10SM OVC020 03/01 A3008 RMK AO1
KBWD 141355Z AUTO 32019KT 10SM OVC020 03/02 A3008 RMK AO1
KBWD 141335Z AUTO 32014G21KT 10SM OVC018 03/02 A3007 RMK AO1
KBWD 141315Z AUTO 34013G17KT 10SM OVC018 03/02 A3007 RMK AO1
KBWD 141255Z AUTO 33015KT 10SM BKN018 BKN034 OVC049 02/01 A3007 RMK AO1
KBWD 141235Z AUTO 33015G22KT 9SM SCT018 BKN034 OVC048 02/01 A3006 RMK AO1
KBWD 141215Z AUTO 34016G22KT 9SM BKN018 OVC048 02/02 A3005 RMK AO1
KBWD 141155Z AUTO 33022G28KT 8SM OVC018 02/02 A3004 RMK AO1
KBWD 141135Z AUTO 33018G29KT 9SM OVC016 02/02 A3003 RMK AO1
KBWD 141115Z AUTO 33019G27KT 7SM OVC014 02/02 A3002 RMK AO1
KBWD 141055Z AUTO 34018G26KT 9SM OVC014 02/02 A3002 RMK AO1
KBWD 141035Z AUTO 33022G28KT 4SM BKN016 OVC041 02/02 A3000 RMK AO1
KBWD 141015Z AUTO 32020G28KT 4SM BKN016 OVC043 02/02 A3000 RMK AO1
KBWD 140955Z AUTO 33021G33KT 5SM BKN018 OVC045 02/02 A2999 RMK AO1
KBWD 140935Z AUTO 32024G34KT 4SM BKN016 BKN021 BKN045 02/01 A2998 RMK AO1
KBWD 140915Z AUTO 32022G35KT 5SM BKN015 02/01 A2998 RMK AO1
KBWD 140855Z AUTO 32021G29KT 5SM BKN013 BKN019 02/02 A2999 RMK AO1
KBWD 140655Z AUTO 32019G31KT 7SM BKN014 OVC021 03/03 A2996 RMK AO1
KBWD 140635Z AUTO 32018G27KT 10SM OVC014 03/03 A2996 RMK AO1
KBWD 140615Z AUTO 32018G25KT 10SM BKN008 OVC014 02/02 A2995 RMK AO1
KBWD 140555Z AUTO 32014G22KT 4SM OVC006 01/01 A2995 RMK AO1
KBWD 140535Z AUTO 31012G21KT 2SM OVC006 00/00 A2995 RMK AO1
KBWD 140515Z AUTO 2SM OVC006 00/00 A2995 RMK AO1
KBWD 140455Z AUTO 32017G22KT 3SM BKN008 BKN014 02/01 A2995 RMK AO1
KBWD 140435Z AUTO 33018G26KT 3SM BKN006 BKN014 02/02 A2995 RMK AO1
KBWD 140415Z AUTO 32012G19KT 2SM BKN006 OVC010 01/00 A2995 RMK AO1
KBWD 140355Z AUTO 32018G24KT 3SM BKN009 02/02 A2994 RMK AO1
KBWD 140335Z AUTO 31016G22KT 5SM BKN011 OVC018 03/02 A2994 RMK AO1
KBWD 140315Z AUTO 31013G22KT 7SM BKN011 OVC020 03/02 A2993 RMK AO1
KBWD 140255Z AUTO 31016G23KT 5SM OVC009 03/02 A2993 RMK AO1
KBWD 140235Z AUTO 30015G22KT 5SM BKN009 BKN013 OVC024 02/02 A2993 RMK AO1
KBWD 140215Z AUTO 30017G23KT 5SM BKN009 BKN013 OVC024 02/02 A2992 RMK AO1
KBWD 140155Z AUTO 30017G27KT 5SM BKN011 BKN016 OVC024 03/02 A2992 RMK AO1
KBWD 140135Z AUTO 31020G29KT 5SM BKN013 BKN018 OVC024 03/02 A2991 RMK AO1
KBWD 140115Z AUTO 31019G26KT 7SM BKN013 OVC019 03/02 A2990 RMK AO1
KBWD 140055Z AUTO 31018G28KT 8SM OVC013 03/02 A2990 RMK AO1
KBWD 140035Z AUTO 31020G25KT 8SM OVC013 03/02 A2989 RMK AO1
KBWD 140015Z AUTO 31017G31KT 8SM OVC013 03/02 A2988 RMK AO1
KBWD 132355Z AUTO 31020G27KT 8SM BKN011 BKN023 03/02 A2987 RMK AO1
KBWD 132335Z AUTO 31019G26KT 6SM SCT011 SCT014 BKN023 02/02 A2986 RMK AO1
KBWD 132315Z AUTO 30017G24KT 5SM FEW013 02/02 A2985 RMK AO1
KBWD 132255Z AUTO 30016G24KT 5SM FEW013 02/02 A2985 RMK AO1
KBWD 132235Z AUTO 30018G26KT 5SM FEW013 02/02 A2984 RMK AO1
KBWD 132215Z AUTO 30020G27KT 5SM SCT013 03/02 A2983 RMK AO1
KBWD 132155Z AUTO 29018G25KT 5SM FEW013 03/02 A2983 RMK AO1
KBWD 132135Z AUTO 28017G23KT 4SM FEW015 03/02 A2983 RMK AO1
KBWD 132115Z AUTO 28018G23KT 2 1/2SM SCT013 04/03 A2982 RMK AO1
KBWD 132055Z AUTO 28018G22KT 3SM FEW015 SCT029 04/03 A2981 RMK AO1
KBWD 132035Z AUTO 28016G22KT 5SM FEW015 SCT020 BKN028 04/03 A2981 RMK AO1
KBWD 132015Z AUTO 30016G23KT 3SM OVC018 05/04 A2979 RMK AO1
KBWD 131955Z AUTO 30013G20KT 4SM OVC016 07/04 A2978 RMK AO1
KBWD 131935Z AUTO 31012KT 9SM OVC016 07/04 A2978 RMK AO1
KBWD 131915Z AUTO 31014G18KT 10SM OVC014 08/04 A2977 RMK AO1
KBWD 131855Z AUTO 32013G20KT 10SM OVC014 08/05 A2978 RMK AO1
KBWD 131835Z AUTO 30014G19KT 5SM OVC014 09/06 A2977 RMK AO1
KBWD 131815Z AUTO 31013KT 9SM OVC014 09/06 A2975 RMK AO1
KBWD 131755Z AUTO 32018G22KT 10SM OVC014 10/06 A2976 RMK AO1
KBWD 131735Z AUTO 31013G21KT 10SM OVC016 09/05 A2978 RMK AO1
KBWD 131715Z AUTO 29014KT 10SM OVC020 09/05 A2980 RMK AO1
KBWD 131655Z AUTO 31017G22KT 10SM SCT022 SCT090 10/04 A2979 RMK AO1
KBWD 131635Z AUTO 28017G22KT 10SM CLR 10/03 A2980 RMK AO1
KBWD 131615Z AUTO 30015G21KT 9SM CLR 11/03 A2978 RMK AO1
KBWD 131555Z AUTO 30020G23KT 10SM CLR 12/03 A2977 RMK AO1
KBWD 131535Z AUTO 30018G27KT 10SM CLR 12/05 A2975 RMK AO1
KBWD 131515Z AUTO 29015G21KT 10SM CLR 13/07 A2973 RMK AO1
KBWD 131455Z AUTO 27012G17KT 10SM CLR 12/08 A2972 RMK AO1
KBWD 131435Z AUTO 27008KT 10SM CLR 12/08 A2971 RMK AO1
KBWD 131415Z AUTO 26010G14KT 10SM CLR 10/10 A2970 RMK AO1
KBWD 131355Z AUTO 23005KT 10SM CLR 08/08 A2969 RMK AO1
KBWD 131335Z AUTO 28003KT 8SM CLR 09/09 A2969 RMK AO1
KBWD 131315Z AUTO 22003KT 5SM CLR 09/09 A2969 RMK AO1
KBWD 131255Z AUTO 00000KT 7SM CLR 09/09 A2968 RMK AO1
KBWD 131235Z AUTO 00000KT 7SM CLR 09/09 A2968 RMK AO1
KBWD 131215Z AUTO 18003KT 4SM FEW090 SCT120 09/09 A2969 RMK AO1
KBWD 131155Z AUTO 13003KT 5SM FEW080 BKN120 09/09 A2968 RMK AO1
KBWD 131135Z AUTO 00000KT 5SM FEW080 OVC120 09/09 A2969 RMK AO1
KBWD 131115Z AUTO 13003KT 6SM FEW090 OVC120 09/09 A2969 RMK AO1
KBWD 131055Z AUTO 00000KT 9SM SCT090 OVC120 10/10 A2969 RMK AO1
KBWD 131035Z AUTO 00000KT 10SM FEW100 BKN120 10/10 A2970 RMK AO1
KBWD 131015Z AUTO 00000KT 10SM BKN090 BKN120 10/10 A2971 RMK AO1
KBWD 130955Z AUTO 15004KT 10SM BKN090 OVC120 10/10 A2971 RMK AO1
KBWD 130935Z AUTO 14003KT 10SM OVC090 10/10 A2972 RMK AO1
KBWD 130915Z AUTO 15003KT 10SM BKN090 BKN110 10/10 A2974 RMK AO1
KBWD 130855Z AUTO 13003KT 10SM FEW110 10/10 A2974 RMK AO1
KBWD 130835Z AUTO 15004KT 10SM FEW100 FEW120 10/10 A2975 RMK AO1